Time;durP1;ratioP1;P1;durP2;ratioP2;P2;SDS_P1;SDS_P2;PMS_P1;PMS_P2;Temp;Humidity;BMP_temperature;BMP_pressure;BME280_temperature;BME280_humidity;BME280_pressure;Samples;Min_cycle;Max_cycle;Signal;HPM_P1;HPM_P2
2023/03/04 00:00:55;;;;;;;4.50;2.70;;;22.90;44.90;;;;;;5041281;28;20108;-64
2023/03/04 00:03:21;;;;;;;3.47;2.50;;;22.90;44.90;;;;;;5043853;28;20587;-63
2023/03/04 00:05:46;;;;;;;3.20;2.13;;;22.90;45.00;;;;;;5042199;28;20457;-64
2023/03/04 00:08:12;;;;;;;3.30;2.50;;;22.80;44.80;;;;;;5044559;28;20028;-64
2023/03/04 00:10:38;;;;;;;3.20;2.40;;;22.80;44.90;;;;;;5040618;28;20029;-64
2023/03/04 00:13:03;;;;;;;3.67;2.60;;;22.80;44.90;;;;;;5037399;28;20021;-64
2023/03/04 00:15:29;;;;;;;3.65;2.30;;;22.70;44.90;;;;;;5038721;28;20086;-65
2023/03/04 00:17:55;;;;;;;4.00;2.50;;;22.70;44.90;;;;;;5040843;28;20501;-65
2023/03/04 00:20:20;;;;;;;3.47;2.50;;;22.70;44.90;;;;;;5039747;28;20061;-65
2023/03/04 00:22:46;;;;;;;3.83;2.50;;;22.70;44.90;;;;;;5039453;28;20060;-64
2023/03/04 00:25:12;;;;;;;2.95;2.25;;;22.60;44.90;;;;;;5043316;28;20060;-64
2023/03/04 00:27:37;;;;;;;3.45;2.30;;;22.60;44.90;;;;;;5040222;28;20453;-64
2023/03/04 00:30:05;;;;;;;4.93;2.55;;;22.70;45.50;;;;;;5038304;28;20086;-64
2023/03/04 00:32:30;;;;;;;3.67;2.47;;;22.60;45.00;;;;;;5041304;28;20025;-65
2023/03/04 00:34:56;;;;;;;2.92;2.30;;;22.60;45.00;;;;;;5041247;28;20074;-65
2023/03/04 00:37:21;;;;;;;3.45;2.20;;;22.60;45.00;;;;;;5040902;28;20030;-64
2023/03/04 00:39:47;;;;;;;4.05;2.50;;;22.60;45.00;;;;;;5042843;28;20495;-64
2023/03/04 00:42:13;;;;;;;3.58;2.22;;;22.50;45.10;;;;;;5038231;28;20531;-64
2023/03/04 00:44:38;;;;;;;3.90;2.38;;;22.50;45.00;;;;;;5040452;28;20033;-65
2023/03/04 00:47:04;;;;;;;2.80;2.13;;;22.50;45.00;;;;;;5038255;28;20033;-63
2023/03/04 00:49:29;;;;;;;3.65;2.38;;;22.50;45.00;;;;;;5037562;28;20489;-64
2023/03/04 00:51:55;;;;;;;3.63;2.30;;;22.50;45.00;;;;;;5039906;28;20029;-63
2023/03/04 00:54:20;;;;;;;3.35;2.40;;;22.50;45.00;;;;;;5038298;28;20018;-63
2023/03/04 00:56:46;;;;;;;4.82;2.70;;;22.50;45.00;;;;;;5043444;28;20026;-64
2023/03/04 00:59:12;;;;;;;4.20;2.63;;;22.50;45.10;;;;;;5036624;28;20097;-64
2023/03/04 01:01:37;;;;;;;3.38;2.08;;;22.40;45.00;;;;;;5037943;28;20036;-63
2023/03/04 01:04:03;;;;;;;3.40;2.50;;;22.40;45.10;;;;;;5039367;28;20037;-63
2023/03/04 01:06:29;;;;;;;3.92;2.40;;;22.40;45.10;;;;;;5039371;28;20037;-65
2023/03/04 01:08:54;;;;;;;3.40;2.28;;;22.40;45.10;;;;;;5034869;28;20030;-64
2023/03/04 01:11:20;;;;;;;3.53;2.35;;;22.30;45.10;;;;;;5037548;28;20033;-64
2023/03/04 01:13:47;;;;;;;3.17;2.38;;;22.30;45.10;;;;;;5038997;28;20511;-64
2023/03/04 01:16:13;;;;;;;3.67;2.47;;;22.30;45.10;;;;;;5039115;28;20100;-65
2023/03/04 01:18:38;;;;;;;4.55;2.50;;;22.30;45.10;;;;;;5040132;28;20476;-64
2023/03/04 01:21:04;;;;;;;3.35;2.38;;;22.30;45.10;;;;;;5038711;28;20022;-64
2023/03/04 01:23:30;;;;;;;3.92;2.17;;;22.30;45.70;;;;;;5040215;28;20030;-65
2023/03/04 01:25:56;;;;;;;3.22;2.22;;;22.20;45.10;;;;;;5040293;28;20107;-64
2023/03/04 01:28:21;;;;;;;2.97;2.10;;;22.20;45.10;;;;;;5040810;28;20032;-64
2023/03/04 01:30:47;;;;;;;3.97;2.55;;;22.20;45.10;;;;;;5039723;28;20384;-64
2023/03/04 01:33:12;;;;;;;3.25;2.15;;;22.20;45.10;;;;;;5038157;28;20032;-64
2023/03/04 01:35:38;;;;;;;3.00;2.30;;;22.20;45.20;;;;;;5037931;28;20094;-64
2023/03/04 01:38:04;;;;;;;3.25;2.20;;;22.20;45.10;;;;;;5035943;28;20025;-63
2023/03/04 01:40:30;;;;;;;3.42;2.28;;;22.20;45.20;;;;;;5038861;28;20032;-64
2023/03/04 01:42:56;;;;;;;3.00;2.10;;;22.10;45.10;;;;;;5041776;28;20501;-64
2023/03/04 01:45:22;;;;;;;2.88;2.33;;;22.10;45.70;;;;;;5039747;28;20048;-64
2023/03/04 01:47:48;;;;;;;2.83;2.10;;;22.10;45.20;;;;;;5036832;28;20386;-63
2023/03/04 01:50:30;;;;;;;3.17;2.08;;;22.10;45.20;;;;;;5038231;28;20025;-65
2023/03/04 01:52:56;;;;;;;3.28;2.20;;;22.10;45.20;;;;;;5040276;28;20523;-65
2023/03/04 01:55:23;;;;;;;2.80;1.98;;;22.10;45.20;;;;;;5038575;28;20017;-64
2023/03/04 01:57:50;;;;;;;2.70;2.10;;;22.00;45.20;;;;;;5037923;28;20025;-64
2023/03/04 02:00:30;;;;;;;2.92;2.10;;;22.00;45.20;;;;;;5039092;28;20094;-65
2023/03/04 02:03:06;;;;;;;3.05;2.13;;;22.00;45.20;;;;;;5039138;28;20025;-64
2023/03/04 02:05:31;;;;;;;2.78;2.03;;;22.00;45.20;;;;;;5040722;28;20357;-64
2023/03/04 02:07:59;;;;;;;2.65;1.80;;;22.00;45.20;;;;;;5035733;28;20035;-64
2023/03/04 02:10:24;;;;;;;2.88;1.90;;;22.00;45.20;;;;;;5039158;28;20160;-64
2023/03/04 02:12:51;;;;;;;3.00;2.00;;;22.00;45.30;;;;;;5040073;28;20099;-64
2023/03/04 02:15:17;;;;;;;3.05;2.30;;;22.00;45.20;;;;;;5038664;28;20036;-64
2023/03/04 02:17:42;;;;;;;3.00;2.10;;;21.90;45.30;;;;;;5037306;28;20386;-64
2023/03/04 02:20:25;;;;;;;3.17;2.03;;;22.00;45.80;;;;;;5046610;28;20059;-64
2023/03/04 02:23:03;;;;;;;3.03;2.10;;;21.90;45.30;;;;;;5039969;28;20064;-64
2023/03/04 02:25:49;;;;;;;2.63;1.90;;;21.90;45.30;;;;;;5039927;28;20068;-64
2023/03/04 02:28:14;;;;;;;4.25;2.30;;;21.90;45.30;;;;;;5041878;28;20076;-64
2023/03/04 02:30:41;;;;;;;3.42;2.17;;;21.80;45.30;;;;;;5044625;28;20028;-65
2023/03/04 02:33:13;;;;;;;3.45;2.05;;;21.80;45.30;;;;;;5040972;28;20029;-64
2023/03/04 02:35:38;;;;;;;3.00;2.10;;;21.80;45.30;;;;;;5041661;28;20033;-65
2023/03/04 02:38:04;;;;;;;3.10;1.95;;;21.80;45.30;;;;;;5042091;28;20072;-64
2023/03/04 02:40:33;;;;;;;3.38;2.33;;;21.80;45.40;;;;;;5038952;28;20362;-64
2023/03/04 02:42:59;;;;;;;3.00;1.93;;;21.80;45.40;;;;;;5042178;28;20039;-63
2023/03/04 02:45:40;;;;;;;2.90;2.00;;;21.80;45.30;;;;;;5041593;28;20339;-64
2023/03/04 02:48:07;;;;;;;3.22;2.22;;;21.80;45.40;;;;;;5042723;28;20025;-64
2023/03/04 02:50:36;;;;;;;2.70;2.00;;;21.80;45.40;;;;;;5043404;28;20519;-64
2023/03/04 02:53:02;;;;;;;;;;;21.80;45.40;;;;;;5039329;28;20575;-65
2023/03/04 02:55:28;;;;;;;2.75;2.00;;;21.70;45.40;;;;;;5042943;28;19909;-65
2023/03/04 02:57:54;;;;;;;2.40;1.90;;;21.70;45.40;;;;;;5042176;28;20033;-64
2023/03/04 03:00:19;;;;;;;2.83;1.90;;;21.70;45.90;;;;;;5040327;28;20029;-64
2023/03/04 03:02:45;;;;;;;3.17;2.00;;;21.70;45.40;;;;;;5041675;28;20029;-64
2023/03/04 03:05:12;;;;;;;2.78;1.90;;;21.70;45.50;;;;;;5042067;28;20461;-64
2023/03/04 03:07:37;;;;;;;2.95;2.00;;;21.70;45.50;;;;;;5038439;28;20038;-63
2023/03/04 03:10:04;;;;;;;2.50;1.80;;;21.60;45.40;;;;;;5036211;28;20388;-64
2023/03/04 03:12:29;;;;;;;2.92;2.10;;;21.60;45.50;;;;;;5039922;28;20025;-64
2023/03/04 03:14:55;;;;;;;2.60;2.10;;;21.60;45.50;;;;;;5042202;28;20024;-64
2023/03/04 03:17:20;;;;;;;3.50;2.00;;;21.60;45.50;;;;;;5041453;28;20105;-63
2023/03/04 03:19:46;;;;;;;3.15;1.90;;;21.60;45.50;;;;;;5037499;28;20392;-63
2023/03/04 03:22:12;;;;;;;2.90;2.03;;;21.60;45.60;;;;;;5042860;28;20102;-64
2023/03/04 03:24:37;;;;;;;2.85;1.88;;;21.60;45.60;;;;;;5041805;28;20044;-64
2023/03/04 03:27:03;;;;;;;2.60;1.90;;;21.60;45.60;;;;;;5038174;28;20033;-64
2023/03/04 03:29:28;;;;;;;2.75;1.92;;;21.60;45.60;;;;;;5041791;28;20139;-64
2023/03/04 03:31:55;;;;;;;2.78;1.73;;;21.50;45.60;;;;;;5043125;28;20033;-63
2023/03/04 03:34:21;;;;;;;3.10;1.92;;;21.50;45.60;;;;;;5039455;28;20021;-64
2023/03/04 03:36:47;;;;;;;2.40;1.83;;;21.50;45.60;;;;;;5040106;28;20032;-63
2023/03/04 03:39:14;;;;;;;2.55;1.83;;;21.50;45.60;;;;;;5039149;28;20102;-63
2023/03/04 03:41:40;;;;;;;2.85;1.85;;;21.50;45.60;;;;;;5039118;28;20504;-64
2023/03/04 03:44:06;;;;;;;2.90;2.13;;;21.50;45.60;;;;;;5039265;28;20030;-63
2023/03/04 03:46:31;;;;;;;3.15;2.20;;;21.50;45.60;;;;;;5040303;28;20036;-64
2023/03/04 03:48:57;;;;;;;2.63;1.88;;;21.50;45.60;;;;;;5038674;28;20025;-64
2023/03/04 03:51:23;;;;;;;2.25;1.67;;;21.50;45.60;;;;;;5042072;28;20515;-63
2023/03/04 03:53:48;;;;;;;2.92;1.90;;;21.50;45.70;;;;;;5037957;28;20435;-64
2023/03/04 03:56:14;;;;;;;2.95;2.13;;;21.40;45.60;;;;;;5035996;28;20029;-63
2023/03/04 03:58:39;;;;;;;3.00;2.10;;;21.40;45.60;;;;;;5047746;28;20021;-63
2023/03/04 04:01:05;;;;;;;2.83;2.00;;;21.40;45.70;;;;;;5040970;28;20511;-64
2023/03/04 04:03:31;;;;;;;3.13;1.95;;;21.40;45.70;;;;;;5043697;28;20024;-64
2023/03/04 04:05:56;;;;;;;2.50;1.90;;;21.40;45.70;;;;;;5035909;28;20042;-63
2023/03/04 04:08:22;;;;;;;3.70;1.90;;;21.40;45.70;;;;;;5036653;28;20385;-64
2023/03/04 04:10:47;;;;;;;2.90;2.03;;;21.40;45.70;;;;;;5040208;28;20108;-64
2023/03/04 04:13:13;;;;;;;3.92;2.00;;;21.40;45.70;;;;;;5042593;28;20078;-64
2023/03/04 04:15:39;;;;;;;3.30;2.30;;;21.40;45.70;;;;;;5040595;28;20049;-63
2023/03/04 04:18:05;;;;;;;2.67;2.00;;;21.40;45.70;;;;;;5054760;28;20021;-64
2023/03/04 04:20:31;;;;;;;3.00;2.08;;;21.40;45.70;;;;;;5041185;28;20397;-63
2023/03/04 04:22:56;;;;;;;2.75;2.00;;;21.40;45.80;;;;;;5039654;28;20029;-63
2023/03/04 04:25:22;;;;;;;2.42;1.70;;;21.30;45.70;;;;;;5042094;28;20443;-64
2023/03/04 04:27:48;;;;;;;3.38;2.20;;;21.40;46.30;;;;;;5039010;28;20040;-63
2023/03/04 04:30:13;;;;;;;2.85;1.80;;;21.30;45.80;;;;;;5040119;28;20025;-63
2023/03/04 04:32:39;;;;;;;2.67;1.80;;;21.30;45.80;;;;;;5041037;28;20040;-63
2023/03/04 04:35:06;;;;;;;2.83;1.90;;;21.30;45.80;;;;;;5038119;28;20088;-64
2023/03/04 04:37:32;;;;;;;2.88;2.10;;;21.30;45.80;;;;;;5038864;28;20469;-65
2023/03/04 04:39:58;;;;;;;2.45;1.90;;;21.30;45.80;;;;;;5040356;28;20056;-63
2023/03/04 04:42:24;;;;;;;2.55;1.95;;;21.30;45.90;;;;;;5039395;28;20100;-64
2023/03/04 04:44:50;;;;;;;2.88;1.90;;;21.30;45.90;;;;;;5040052;28;20105;-63
2023/03/04 04:47:16;;;;;;;2.78;1.88;;;21.30;45.90;;;;;;5038496;28;20426;-64
2023/03/04 04:49:41;;;;;;;2.60;1.90;;;21.30;45.90;;;;;;5040359;28;20017;-64
2023/03/04 04:52:07;;;;;;;2.92;2.17;;;21.30;45.90;;;;;;5038106;28;20037;-64
2023/03/04 04:54:32;;;;;;;2.65;1.75;;;21.20;45.90;;;;;;5038496;28;20084;-64
2023/03/04 04:56:58;;;;;;;2.72;1.95;;;21.20;45.90;;;;;;5039533;28;20137;-65
2023/03/04 04:59:23;;;;;;;2.63;1.90;;;21.20;45.90;;;;;;5039255;28;20515;-64
2023/03/04 05:01:49;;;;;;;2.78;1.90;;;21.20;45.90;;;;;;5041955;28;20035;-64
2023/03/04 05:04:15;;;;;;;2.17;1.70;;;21.20;45.90;;;;;;5036948;28;20078;-64
2023/03/04 05:06:41;;;;;;;2.92;1.90;;;21.20;45.90;;;;;;5040694;28;20036;-64
2023/03/04 05:09:06;;;;;;;2.65;1.77;;;21.20;45.90;;;;;;5037288;28;20482;-64
2023/03/04 05:11:33;;;;;;;2.78;1.90;;;21.20;45.90;;;;;;5040180;28;20037;-64
2023/03/04 05:13:58;;;;;;;2.83;2.00;;;21.20;46.00;;;;;;5038072;28;20029;-63
2023/03/04 05:16:24;;;;;;;2.70;2.00;;;21.20;46.00;;;;;;5039076;28;20087;-63
2023/03/04 05:18:49;;;;;;;2.42;1.83;;;21.20;46.00;;;;;;5037753;28;20484;-63
2023/03/04 05:21:15;;;;;;;2.55;1.90;;;21.10;46.00;;;;;;5037170;28;20039;-63
2023/03/04 05:23:42;;;;;;;2.47;1.70;;;21.20;46.00;;;;;;5037611;28;20142;-64
2023/03/04 05:26:11;;;;;;;2.40;1.65;;;21.20;46.00;;;;;;5038346;28;20033;-63
2023/03/04 05:28:37;;;;;;;2.85;2.00;;;21.10;46.00;;;;;;5041236;28;20067;-64
2023/03/04 05:31:03;;;;;;;2.47;1.90;;;21.10;46.00;;;;;;5040119;28;20057;-63
2023/03/04 05:33:29;;;;;;;2.83;1.88;;;21.10;46.00;;;;;;5036605;28;20473;-64
2023/03/04 05:35:55;;;;;;;2.50;1.83;;;21.10;46.00;;;;;;5039114;28;20108;-63
2023/03/04 05:38:21;;;;;;;2.47;1.77;;;21.10;46.00;;;;;;5041231;28;20070;-63
2023/03/04 05:40:47;;;;;;;2.53;1.70;;;21.10;46.00;;;;;;5036988;28;20030;-63
2023/03/04 05:43:14;;;;;;;2.55;1.85;;;21.10;46.00;;;;;;5039695;28;20029;-64
2023/03/04 05:45:40;;;;;;;2.40;1.63;;;21.10;46.10;;;;;;5037972;28;20102;-64
2023/03/04 05:48:07;;;;;;;2.80;2.00;;;21.10;46.00;;;;;;5039724;28;20135;-64
2023/03/04 05:50:33;;;;;;;2.70;1.80;;;21.10;46.10;;;;;;5038662;28;20504;-64
2023/03/04 05:52:59;;;;;;;2.17;1.58;;;21.10;46.10;;;;;;5039994;28;20021;-63
2023/03/04 05:55:27;;;;;;;2.67;1.85;;;21.10;46.10;;;;;;5036394;28;20104;-64
2023/03/04 05:57:53;;;;;;;2.45;1.70;;;21.00;46.00;;;;;;5042763;28;20021;-64
2023/03/04 06:00:19;;;;;;;2.60;1.83;;;21.10;46.10;;;;;;5043173;28;20362;-64
2023/03/04 06:02:45;;;;;;;2.53;1.80;;;21.10;46.10;;;;;;5044339;28;20025;-63
2023/03/04 06:05:12;;;;;;;2.80;1.83;;;21.00;46.00;;;;;;5040796;28;20467;-64
2023/03/04 06:07:38;;;;;;;2.53;1.80;;;21.00;46.10;;;;;;5041997;28;20017;-64
2023/03/04 06:10:05;;;;;;;2.70;1.95;;;21.00;46.10;;;;;;5041127;28;20072;-61
2023/03/04 06:12:31;;;;;;;2.40;1.75;;;21.00;46.10;;;;;;5041782;28;20025;-63
2023/03/04 06:14:57;;;;;;;1.98;1.55;;;21.00;46.10;;;;;;5043021;28;20143;-64
2023/03/04 06:17:22;;;;;;;2.42;1.83;;;21.00;46.10;;;;;;5045003;28;20489;-63
2023/03/04 06:19:48;;;;;;;2.70;1.70;;;21.00;46.10;;;;;;5042868;28;20032;-64
2023/03/04 06:22:13;;;;;;;3.13;2.00;;;21.00;46.10;;;;;;5042650;28;20472;-64
2023/03/04 06:24:39;;;;;;;2.35;1.70;;;21.00;46.10;;;;;;5041014;28;20060;-64
2023/03/04 06:27:05;;;;;;;2.47;1.77;;;21.00;46.10;;;;;;5042336;28;20037;-63
2023/03/04 06:29:30;;;;;;;3.20;2.10;;;21.00;46.10;;;;;;5042055;28;20035;-63
2023/03/04 06:31:56;;;;;;;2.53;1.67;;;21.00;46.10;;;;;;5042088;28;20490;-64
2023/03/04 06:34:22;;;;;;;2.50;1.90;;;21.00;46.10;;;;;;5042417;28;20018;-63
2023/03/04 06:36:47;;;;;;;2.50;1.85;;;21.00;46.10;;;;;;5040478;28;20017;-63
2023/03/04 06:39:13;;;;;;;2.70;1.80;;;21.00;46.10;;;;;;5041317;28;20525;-63
2023/03/04 06:41:39;;;;;;;2.80;1.88;;;21.00;46.10;;;;;;5045001;28;20108;-63
2023/03/04 06:44:05;;;;;;;2.70;1.75;;;21.00;46.10;;;;;;5043467;28;20029;-63
2023/03/04 06:46:33;;;;;;;2.58;1.70;;;21.00;46.10;;;;;;5042872;28;20024;-63
2023/03/04 06:48:58;;;;;;;2.85;1.90;;;20.90;46.10;;;;;;5044627;28;20020;-63
2023/03/04 06:51:24;;;;;;;2.55;1.98;;;21.00;46.20;;;;;;5039502;28;20396;-63
2023/03/04 06:53:50;;;;;;;2.53;1.85;;;20.90;46.20;;;;;;5042357;28;20071;-63
2023/03/04 06:56:15;;;;;;;2.83;1.90;;;20.90;46.10;;;;;;5043057;28;20030;-63
2023/03/04 06:58:42;;;;;;;2.75;1.98;;;20.90;46.20;;;;;;5041103;28;20036;-63
2023/03/04 07:01:19;;;;;;;2.90;2.10;;;20.90;46.10;;;;;;5043705;28;20048;-63
2023/03/04 07:03:45;;;;;;;2.60;2.00;;;20.90;46.20;;;;;;5039470;28;20439;-63
2023/03/04 07:06:12;;;;;;;2.78;2.00;;;20.90;46.10;;;;;;5039461;28;20538;-62
2023/03/04 07:08:39;;;;;;;2.83;1.90;;;20.90;46.10;;;;;;5040186;28;20021;-62
2023/03/04 07:11:05;;;;;;;2.97;1.92;;;20.90;46.20;;;;;;5039617;28;20030;-63
2023/03/04 07:13:31;;;;;;;2.83;2.00;;;20.90;46.20;;;;;;5041032;28;20171;-63
2023/03/04 07:15:59;;;;;;;3.05;1.98;;;20.90;46.20;;;;;;5040540;28;20033;-63
2023/03/04 07:18:24;;;;;;;3.30;2.20;;;20.90;46.20;;;;;;5039535;28;20033;-63
2023/03/04 07:20:53;;;;;;;2.90;1.80;;;20.90;46.20;;;;;;5038732;28;20029;-62
2023/03/04 07:23:19;;;;;;;3.03;2.00;;;20.90;46.20;;;;;;5039979;28;20311;-63
2023/03/04 07:25:47;;;;;;;3.08;2.10;;;20.90;46.20;;;;;;5040929;28;20051;-62
2023/03/04 07:28:12;;;;;;;3.50;2.10;;;20.90;46.20;;;;;;5071668;28;20076;-62
2023/03/04 07:30:38;;;;;;;2.70;1.95;;;20.90;46.20;;;;;;5040687;28;20497;-62
2023/03/04 07:33:04;;;;;;;2.88;2.10;;;20.90;46.20;;;;;;5039345;28;20029;-62
2023/03/04 07:35:29;;;;;;;2.75;1.90;;;20.90;46.20;;;;;;5043077;28;20056;-63
2023/03/04 07:37:55;;;;;;;2.63;1.95;;;20.90;46.20;;;;;;5040219;28;20564;-64
2023/03/04 07:40:21;;;;;;;2.63;1.92;;;20.90;46.20;;;;;;5036736;28;20067;-62
2023/03/04 07:42:54;;;;;;;2.28;1.73;;;20.90;46.20;;;;;;5040417;28;20703;-63
2023/03/04 07:45:20;;;;;;;2.47;1.85;;;20.90;46.30;;;;;;5041244;28;20071;-63
2023/03/04 07:47:46;;;;;;;2.30;1.70;;;20.90;46.80;;;;;;5037863;28;20501;-63
2023/03/04 07:50:12;;;;;;;2.20;1.65;;;20.90;46.30;;;;;;5042912;28;20110;-63
2023/03/04 07:52:43;;;;;;;2.47;1.75;;;20.80;46.30;;;;;;5039326;28;20028;-63
2023/03/04 07:55:10;;;;;;;2.60;1.80;;;20.90;46.40;;;;;;5039863;28;20465;-63
2023/03/04 07:57:38;;;;;;;3.13;1.80;;;20.80;46.40;;;;;;5041400;28;20477;-63
2023/03/04 08:00:04;;;;;;;2.92;1.80;;;20.80;46.40;;;;;;5039575;28;20018;-63
2023/03/04 08:02:30;;;;;;;2.33;1.63;;;20.80;46.40;;;;;;5040129;28;20475;-63
2023/03/04 08:04:56;;;;;;;2.50;1.60;;;20.80;46.40;;;;;;5040211;28;20108;-64
2023/03/04 08:07:22;;;;;;;2.25;1.70;;;20.80;46.40;;;;;;5038869;28;20026;-63
2023/03/04 08:09:48;;;;;;;2.00;1.52;;;20.80;46.40;;;;;;5042059;28;20033;-63
2023/03/04 08:12:14;;;;;;;5.05;2.08;;;20.80;46.40;;;;;;5041017;28;20025;-63
2023/03/04 08:14:40;;;;;;;2.15;1.30;;;20.80;46.40;;;;;;5039905;28;20021;-63
2023/03/04 08:17:05;;;;;;;1.83;1.38;;;20.80;46.50;;;;;;5037037;28;20370;-74
2023/03/04 08:19:31;;;;;;;2.60;1.60;;;20.80;46.50;;;;;;5039521;28;20032;-64
2023/03/04 08:21:56;;;;;;;2.53;1.70;;;20.80;46.50;;;;;;5038901;28;20068;-65
2023/03/04 08:24:22;;;;;;;2.67;1.80;;;20.80;46.50;;;;;;5039814;28;20025;-64
2023/03/04 08:26:49;;;;;;;2.40;1.67;;;20.80;46.60;;;;;;5040987;28;20042;-65
2023/03/04 08:29:20;;;;;;;2.38;1.65;;;20.80;46.50;;;;;;5039516;28;20025;-64
2023/03/04 08:31:47;;;;;;;2.53;1.90;;;20.80;46.70;;;;;;5039530;28;20034;-65
2023/03/04 08:34:13;;;;;;;2.20;1.73;;;20.80;47.20;;;;;;5040604;28;20025;-65
2023/03/04 08:36:41;;;;;;;3.53;1.90;;;20.80;47.20;;;;;;5041121;28;20099;-65
2023/03/04 08:39:08;;;;;;;2.67;1.85;;;20.80;46.70;;;;;;5041219;28;20252;-64
2023/03/04 08:41:34;;;;;;;2.38;1.80;;;20.80;46.70;;;;;;5040281;28;20029;-65
2023/03/04 08:44:00;;;;;;;2.97;1.80;;;20.80;46.70;;;;;;5038319;28;20033;-64
2023/03/04 08:46:26;;;;;;;2.38;1.50;;;20.80;46.80;;;;;;5071022;28;20108;-65
2023/03/04 08:48:51;;;;;;;3.35;1.83;;;20.80;46.80;;;;;;5039045;28;20108;-65
2023/03/04 08:51:17;;;;;;;3.00;1.80;;;20.80;46.80;;;;;;5036712;28;20033;-64
2023/03/04 08:53:44;;;;;;;2.97;1.80;;;20.70;46.80;;;;;;5039622;28;20334;-64
2023/03/04 08:56:10;;;;;;;3.00;1.90;;;20.70;46.80;;;;;;5038191;28;20048;-65
2023/03/04 08:58:36;;;;;;;2.58;1.60;;;20.70;46.80;;;;;;5039507;28;20022;-65
2023/03/04 09:01:03;;;;;;;2.40;1.67;;;20.70;46.90;;;;;;5039061;28;20040;-65
2023/03/04 09:03:29;;;;;;;2.97;1.85;;;20.70;46.90;;;;;;5037102;28;20124;-65
2023/03/04 09:05:54;;;;;;;2.38;1.65;;;20.70;47.00;;;;;;5037109;28;20045;-65
2023/03/04 09:08:20;;;;;;;2.60;1.80;;;20.70;47.00;;;;;;5039748;28;20408;-65
2023/03/04 09:10:46;;;;;;;2.83;1.70;;;20.70;47.00;;;;;;5037473;28;20037;-65
2023/03/04 09:13:16;;;;;;;3.38;2.13;;;20.70;47.00;;;;;;5038392;28;20106;-64
2023/03/04 09:15:49;;;;;;;;;;;20.70;47.00;;;;;;5039116;28;20017;-65
2023/03/04 09:18:16;;;;;;;2.97;1.85;;;20.70;47.00;;;;;;5038138;28;19951;-66
2023/03/04 09:20:43;;;;;;;2.97;1.73;;;20.70;47.00;;;;;;5039559;28;20987;-65
2023/03/04 09:23:09;;;;;;;2.55;1.77;;;20.70;47.10;;;;;;5041100;28;20037;-66
2023/03/04 09:25:36;;;;;;;2.22;1.63;;;20.70;47.40;;;;;;5040182;28;20542;-65
2023/03/04 09:28:02;;;;;;;2.50;1.75;;;20.80;47.60;;;;;;5038825;28;20025;-64
2023/03/04 09:30:27;;;;;;;2.40;1.60;;;20.80;47.50;;;;;;5037054;28;20040;-65
2023/03/04 09:32:53;;;;;;;1.67;1.30;;;20.90;47.40;;;;;;5038393;28;20060;-65
2023/03/04 09:35:19;;;;;;;2.20;1.70;;;21.00;47.40;;;;;;5044257;28;20119;-65
2023/03/04 09:37:45;;;;;;;1.92;1.45;;;21.00;47.80;;;;;;5044107;28;20109;-64
2023/03/04 09:40:19;;;;;;;2.28;1.70;;;21.20;47.20;;;;;;5044824;28;20017;-64
2023/03/04 09:42:55;;;;;;;2.28;1.52;;;21.20;47.00;;;;;;5044039;28;20033;-65
2023/03/04 09:45:25;;;;;;;2.17;1.50;;;21.30;47.00;;;;;;5078330;28;20047;-65
2023/03/04 09:47:54;;;;;;;2.75;2.08;;;21.40;46.90;;;;;;5044888;28;20758;-65
2023/03/04 09:50:21;;;;;;;2.30;1.67;;;21.40;46.70;;;;;;5044146;28;20057;-65
2023/03/04 09:53:13;;;;;;;2.83;1.88;;;21.50;46.70;;;;;;5049316;28;20530;-65
2023/03/04 09:55:42;;;;;;;2.83;2.08;;;21.60;46.70;;;;;;5044992;28;20055;-64
2023/03/04 09:58:45;;;;;;;3.65;2.13;;;21.70;46.70;;;;;;5043397;28;20128;-64
2023/03/04 10:01:19;;;;;;;3.42;2.13;;;21.80;46.50;;;;;;5041872;28;20136;-64
2023/03/04 10:03:53;;;;;;;3.92;1.95;;;21.80;46.40;;;;;;5044356;28;20075;-65
2023/03/04 10:06:21;;;;;;;2.97;1.90;;;21.90;46.30;;;;;;5044700;28;20563;-63
2023/03/04 10:09:06;;;;;;;2.85;1.80;;;22.00;46.20;;;;;;5048325;28;20033;-65
2023/03/04 10:11:43;;;;;;;2.75;2.00;;;22.10;46.00;;;;;;5047085;28;20039;-64
2023/03/04 10:14:21;;;;;;;2.92;1.90;;;22.20;46.00;;;;;;5044961;28;20032;-65
2023/03/04 10:16:55;;;;;;;3.00;2.10;;;22.20;45.80;;;;;;5046034;28;20419;-64
2023/03/04 10:19:44;;;;;;;3.97;2.00;;;22.30;45.70;;;;;;5047631;28;20033;-65
2023/03/04 10:22:28;;;;;;;3.33;2.35;;;22.30;45.50;;;;;;5047043;28;20037;-66
2023/03/04 10:24:56;;;;;;;2.95;2.25;;;22.50;45.50;;;;;;5042486;28;20506;-65
2023/03/04 10:27:23;;;;;;;2.53;1.83;;;22.50;45.40;;;;;;5044143;28;20030;-65
2023/03/04 10:29:50;;;;;;;3.38;2.10;;;22.60;45.30;;;;;;5045404;28;20526;-65
2023/03/04 10:32:17;;;;;;;3.30;2.20;;;22.60;45.20;;;;;;5046494;28;20519;-65
2023/03/04 10:34:43;;;;;;;3.00;1.95;;;22.70;45.30;;;;;;5041135;28;20498;-66
2023/03/04 10:37:10;;;;;;;3.35;2.15;;;22.70;45.10;;;;;;5041041;28;20037;-65
2023/03/04 10:39:40;;;;;;;2.78;2.00;;;22.80;45.00;;;;;;5045906;28;20028;-65
2023/03/04 10:42:15;;;;;;;3.38;2.08;;;22.90;44.90;;;;;;5045178;28;20085;-65
2023/03/04 10:44:53;;;;;;;2.80;1.95;;;23.00;44.80;;;;;;5041734;28;20029;-67
2023/03/04 10:47:18;;;;;;;3.85;2.35;;;23.00;44.60;;;;;;5041903;28;20033;-65
2023/03/04 10:49:53;;;;;;;2.92;1.90;;;23.10;45.10;;;;;;5038670;28;20109;-65
2023/03/04 10:52:45;;;;;;;2.75;1.88;;;23.20;44.60;;;;;;5041629;28;20029;-66
2023/03/04 10:55:26;;;;;;;3.40;1.90;;;23.20;44.50;;;;;;5045670;28;20495;-65
2023/03/04 10:57:55;;;;;;;2.70;2.10;;;23.30;44.40;;;;;;5041397;28;20100;-65
2023/03/04 11:00:29;;;;;;;2.70;1.77;;;23.40;44.40;;;;;;5042218;28;20112;-65
2023/03/04 11:03:27;;;;;;;3.13;2.05;;;23.40;44.20;;;;;;5042756;28;20061;-65
2023/03/04 11:06:20;;;;;;;2.95;1.90;;;23.50;44.30;;;;;;5040920;28;20610;-65
2023/03/04 11:08:58;;;;;;;2.95;1.80;;;23.50;44.20;;;;;;5040419;28;20508;-65
2023/03/04 11:11:33;;;;;;;2.10;1.50;;;23.70;44.00;;;;;;5049097;28;20582;-65
2023/03/04 11:14:02;;;;;;;2.90;1.70;;;23.70;43.80;;;;;;5075042;28;20545;-65
2023/03/04 11:16:31;;;;;;;2.63;1.80;;;23.90;43.80;;;;;;5044554;28;20057;-65
2023/03/04 11:19:05;;;;;;;3.53;1.90;;;23.90;43.50;;;;;;5042157;28;20042;-65
2023/03/04 11:21:37;;;;;;;2.10;1.60;;;23.90;43.50;;;;;;5044928;28;20423;-66
2023/03/04 11:24:11;;;;;;;2.47;1.85;;;23.90;43.40;;;;;;5038147;28;20037;-66
2023/03/04 11:26:49;;;;;;;2.92;1.90;;;23.90;43.30;;;;;;5047367;28;20110;-65
2023/03/04 11:29:25;;;;;;;3.05;1.90;;;24.00;43.30;;;;;;5042973;28;20056;-66
2023/03/04 11:31:57;;;;;;;3.25;1.80;;;23.90;43.20;;;;;;5043838;28;20469;-66
2023/03/04 11:34:42;;;;;;;2.83;1.80;;;24.00;43.20;;;;;;5039787;28;20053;-66
2023/03/04 11:37:22;;;;;;;2.92;1.77;;;24.00;43.20;;;;;;5043370;28;20488;-65
2023/03/04 11:40:03;;;;;;;3.17;1.70;;;24.00;43.20;;;;;;5041742;28;20056;-65
2023/03/04 11:42:39;;;;;;;2.80;1.70;;;23.90;43.20;;;;;;5054124;28;20119;-65
2023/03/04 11:45:12;;;;;;;2.72;1.80;;;23.90;43.20;;;;;;5044261;28;20033;-65
2023/03/04 11:47:47;;;;;;;3.50;1.73;;;23.90;43.20;;;;;;5040907;28;20464;-65
2023/03/04 11:50:34;;;;;;;2.42;1.75;;;23.90;43.20;;;;;;5036425;28;20107;-64
2023/03/04 11:53:30;;;;;;;2.40;1.75;;;23.90;43.30;;;;;;5039040;28;20108;-65
2023/03/04 11:56:40;;;;;;;2.72;1.77;;;23.90;43.30;;;;;;5039350;28;20021;-65
2023/03/04 11:59:33;;;;;;;2.72;1.60;;;23.90;43.30;;;;;;5022093;28;20184;-64
2023/03/04 12:02:14;;;;;;;2.83;1.77;;;23.90;43.40;;;;;;5038516;28;20534;-65
2023/03/04 12:05:07;;;;;;;2.97;1.77;;;23.90;43.40;;;;;;5042557;28;20484;-65
2023/03/04 12:07:45;;;;;;;2.53;1.83;;;23.90;43.40;;;;;;4990669;28;60674;-64
2023/03/04 12:10:41;;;;;;;2.42;1.63;;;23.90;43.50;;;;;;4984090;28;20030;-66
2023/03/04 12:13:19;;;;;;;2.20;1.60;;;23.90;43.50;;;;;;4982389;28;20085;-66
2023/03/04 12:15:56;;;;;;;2.60;1.73;;;23.90;43.60;;;;;;4982545;28;20059;-65
2023/03/04 12:18:40;;;;;;;2.65;1.83;;;23.90;43.60;;;;;;4985245;28;20018;-65
2023/03/04 12:21:45;;;;;;;3.17;1.80;;;23.90;43.70;;;;;;4983946;28;20106;-65
2023/03/04 12:24:25;;;;;;;2.60;1.63;;;23.90;43.70;;;;;;4974651;28;20039;-66
2023/03/04 12:27:20;;;;;;;2.10;1.52;;;23.90;43.60;;;;;;4980966;28;20046;-66
2023/03/04 12:30:09;;;;;;;2.70;1.85;;;23.90;43.70;;;;;;4984820;28;20129;-66
2023/03/04 12:32:34;;;;;;;2.88;2.00;;;23.90;43.70;;;;;;4984231;28;20027;-66
2023/03/04 12:35:00;;;;;;;2.25;1.60;;;23.90;43.60;;;;;;4983496;28;20024;-65
2023/03/04 12:37:53;;;;;;;2.75;1.80;;;23.80;43.60;;;;;;4986149;28;20034;-65
2023/03/04 12:40:49;;;;;;;3.00;1.85;;;23.90;43.80;;;;;;4984097;28;20026;-66
2023/03/04 12:43:51;;;;;;;2.42;1.80;;;23.80;43.80;;;;;;4981920;28;20018;-66
2023/03/04 12:46:31;;;;;;;2.50;1.70;;;23.80;43.80;;;;;;4986031;28;20066;-64
2023/03/04 12:49:06;;;;;;;2.67;1.58;;;23.80;43.80;;;;;;4983029;28;20034;-65
2023/03/04 12:51:57;;;;;;;5.05;1.70;;;23.80;43.90;;;;;;4981296;28;20030;-65
2023/03/04 12:54:34;;;;;;;3.13;1.70;;;23.80;43.90;;;;;;4982354;28;20033;-65
2023/03/04 12:57:16;;;;;;;2.13;1.52;;;23.70;43.90;;;;;;4982085;28;20029;-66
2023/03/04 12:59:48;;;;;;;2.38;1.50;;;23.70;44.00;;;;;;4983558;28;20544;-66